sensor_id;sensor_type;location;lat;lon;timestamp;pressure;altitude;pressure_sealevel;temperature;humidity
5062;BME280;2351;50.812;12.872;2023-01-27T00:01:23;98261.97;;;-3.85;100.00
5062;BME280;2351;50.812;12.872;2023-01-27T00:03:55;98251.59;;;-3.84;100.00
5062;BME280;2351;50.812;12.872;2023-01-27T00:06:26;98246.34;;;-3.81;100.00
5062;BME280;2351;50.812;12.872;2023-01-27T00:08:58;98246.31;;;-3.79;100.00
5062;BME280;2351;50.812;12.872;2023-01-27T00:11:30;98249.69;;;-3.75;100.00
5062;BME280;2351;50.812;12.872;2023-01-27T00:14:20;98249.78;;;-3.80;100.00
5062;BME280;2351;50.812;12.872;2023-01-27T00:16:53;98244.59;;;-3.80;100.00
5062;BME280;2351;50.812;12.872;2023-01-27T00:19:25;98240.31;;;-3.81;100.00
5062;BME280;2351;50.812;12.872;2023-01-27T00:21:56;98238.63;;;-3.82;100.00
5062;BME280;2351;50.812;12.872;2023-01-27T00:24:45;98233.50;;;-3.84;100.00
5062;BME280;2351;50.812;12.872;2023-01-27T00:27:17;98235.22;;;-3.84;100.00
5062;BME280;2351;50.812;12.872;2023-01-27T00:29:50;98228.31;;;-3.84;100.00
5062;BME280;2351;50.812;12.872;2023-01-27T00:32:23;98222.38;;;-3.87;100.00
5062;BME280;2351;50.812;12.872;2023-01-27T00:35:12;98233.50;;;-3.85;100.00
5062;BME280;2351;50.812;12.872;2023-01-27T00:37:46;98230.19;;;-3.90;100.00
5062;BME280;2351;50.812;12.872;2023-01-27T00:40:18;98235.44;;;-3.94;100.00
5062;BME280;2351;50.812;12.872;2023-01-27T00:42:50;98244.91;;;-3.92;100.00
5062;BME280;2351;50.812;12.872;2023-01-27T00:45:23;98248.47;;;-3.98;100.00
5062;BME280;2351;50.812;12.872;2023-01-27T00:48:12;98249.38;;;-3.99;100.00
5062;BME280;2351;50.812;12.872;2023-01-27T00:50:44;98247.63;;;-3.99;100.00
5062;BME280;2351;50.812;12.872;2023-01-27T00:53:15;98235.56;;;-3.98;100.00
5062;BME280;2351;50.812;12.872;2023-01-27T00:55:47;98245.84;;;-3.97;100.00
5062;BME280;2351;50.812;12.872;2023-01-27T00:58:19;98246.66;;;-3.95;100.00
5062;BME280;2351;50.812;12.872;2023-01-27T01:00:54;98250.97;;;-3.94;100.00
5062;BME280;2351;50.812;12.872;2023-01-27T01:03:26;98252.66;;;-3.92;100.00
5062;BME280;2351;50.812;12.872;2023-01-27T01:06:02;98251.78;;;-3.93;100.00
5062;BME280;2351;50.812;12.872;2023-01-27T01:08:36;98244.09;;;-3.95;100.00
5062;BME280;2351;50.812;12.872;2023-01-27T01:11:11;98248.38;;;-3.95;100.00
5062;BME280;2351;50.812;12.872;2023-01-27T01:13:44;98247.56;;;-3.96;100.00
5062;BME280;2351;50.812;12.872;2023-01-27T01:16:19;98255.31;;;-3.96;100.00
5062;BME280;2351;50.812;12.872;2023-01-27T01:18:53;98250.97;;;-3.94;100.00
5062;BME280;2351;50.812;12.872;2023-01-27T01:21:24;98244.09;;;-3.95;100.00
5062;BME280;2351;50.812;12.872;2023-01-27T01:23:56;98249.31;;;-3.98;100.00
5062;BME280;2351;50.812;12.872;2023-01-27T01:26:28;98255.41;;;-4.00;100.00
5062;BME280;2351;50.812;12.872;2023-01-27T01:29:00;98257.97;;;-3.99;100.00
5062;BME280;2351;50.812;12.872;2023-01-27T01:31:33;98245.84;;;-3.97;100.00
5062;BME280;2351;50.812;12.872;2023-01-27T01:34:04;98245.00;;;-3.97;100.00
5062;BME280;2351;50.812;12.872;2023-01-27T01:36:36;98244.09;;;-3.95;100.00
5062;BME280;2351;50.812;12.872;2023-01-27T01:39:08;98246.66;;;-3.95;100.00
5062;BME280;2351;50.812;12.872;2023-01-27T01:41:40;98255.34;;;-3.97;100.00
5062;BME280;2351;50.812;12.872;2023-01-27T01:44:19;98247.56;;;-3.96;100.00
5062;BME280;2351;50.812;12.872;2023-01-27T01:46:53;98250.97;;;-3.94;100.00
5062;BME280;2351;50.812;12.872;2023-01-27T01:49:27;98247.50;;;-3.92;100.00
5062;BME280;2351;50.812;12.872;2023-01-27T01:52:02;98241.44;;;-3.91;100.00
5062;BME280;2351;50.812;12.872;2023-01-27T01:54:39;98249.19;;;-3.91;100.00
5062;BME280;2351;50.812;12.872;2023-01-27T01:57:16;98243.19;;;-3.94;100.00
5062;BME280;2351;50.812;12.872;2023-01-27T01:59:52;98236.44;;;-3.99;100.00
5062;BME280;2351;50.812;12.872;2023-01-27T02:02:27;98237.31;;;-4.00;100.00
5062;BME280;2351;50.812;12.872;2023-01-27T02:05:01;98234.69;;;-3.99;100.00
5062;BME280;2351;50.812;12.872;2023-01-27T02:07:38;98235.56;;;-4.00;100.00
5062;BME280;2351;50.812;12.872;2023-01-27T02:10:15;98230.41;;;-4.00;100.00
5062;BME280;2351;50.812;12.872;2023-01-27T02:12:47;98242.38;;;-3.96;100.00
5062;BME280;2351;50.812;12.872;2023-01-27T02:15:19;98235.38;;;-3.90;100.00
5062;BME280;2351;50.812;12.872;2023-01-27T02:17:53;98235.31;;;-3.87;100.00
5062;BME280;2351;50.812;12.872;2023-01-27T02:20:28;98233.50;;;-3.84;100.00
5062;BME280;2351;50.812;12.872;2023-01-27T02:23:10;98241.19;;;-3.82;100.00
5062;BME280;2351;50.812;12.872;2023-01-27T02:25:53;98230.84;;;-3.82;100.00
5062;BME280;2351;50.812;12.872;2023-01-27T02:28:28;98236.00;;;-3.81;100.00
5062;BME280;2351;50.812;12.872;2023-01-27T02:31:00;98232.56;;;-3.81;100.00
5062;BME280;2351;50.812;12.872;2023-01-27T02:33:32;98238.69;;;-3.85;100.00
5062;BME280;2351;50.812;12.872;2023-01-27T02:36:07;98242.19;;;-3.86;100.00
5062;BME280;2351;50.812;12.872;2023-01-27T02:38:43;98245.72;;;-3.90;100.00
5062;BME280;2351;50.812;12.872;2023-01-27T02:41:20;98243.94;;;-3.88;100.00
5062;BME280;2351;50.812;12.872;2023-01-27T02:43:54;98248.25;;;-3.89;100.00
5062;BME280;2351;50.812;12.872;2023-01-27T02:46:26;98256.00;;;-3.87;100.00
5062;BME280;2351;50.812;12.872;2023-01-27T02:48:58;98247.34;;;-3.86;100.00
5062;BME280;2351;50.812;12.872;2023-01-27T02:51:29;98245.72;;;-3.90;100.00
5062;BME280;2351;50.812;12.872;2023-01-27T02:54:01;98243.97;;;-3.90;100.00
5062;BME280;2351;50.812;12.872;2023-01-27T02:56:34;98252.59;;;-3.89;100.00
5062;BME280;2351;50.812;12.872;2023-01-27T02:59:06;98250.91;;;-3.90;100.00
5062;BME280;2351;50.812;12.872;2023-01-27T03:01:38;98254.28;;;-3.88;100.00
5062;BME280;2351;50.812;12.872;2023-01-27T03:04:09;98255.19;;;-3.89;100.00
5062;BME280;2351;50.812;12.872;2023-01-27T03:06:41;98256.06;;;-3.90;100.00
5062;BME280;2351;50.812;12.872;2023-01-27T03:09:13;98261.25;;;-3.90;100.00
5062;BME280;2351;50.812;12.872;2023-01-27T03:11:46;98256.09;;;-3.92;100.00
5062;BME280;2351;50.812;12.872;2023-01-27T03:14:35;98256.94;;;-3.91;100.00
5062;BME280;2351;50.812;12.872;2023-01-27T03:17:24;98257.84;;;-3.94;100.00
5062;BME280;2351;50.812;12.872;2023-01-27T03:20:14;98259.66;;;-3.98;100.00
5062;BME280;2351;50.812;12.872;2023-01-27T03:22:46;98264.06;;;-4.01;100.00
5062;BME280;2351;50.812;12.872;2023-01-27T03:25:17;98262.38;;;-4.04;100.00
5062;BME280;2351;50.812;12.872;2023-01-27T03:27:50;98271.06;;;-4.06;100.00
5062;BME280;2351;50.812;12.872;2023-01-27T03:30:22;98265.84;;;-4.05;100.00
5062;BME280;2351;50.812;12.872;2023-01-27T03:32:54;98267.66;;;-4.09;100.00
5062;BME280;2351;50.812;12.872;2023-01-27T03:35:25;98275.38;;;-4.07;100.00
5062;BME280;2351;50.812;12.872;2023-01-27T03:38:04;98273.66;;;-4.08;100.00
5062;BME280;2351;50.812;12.872;2023-01-27T03:40:53;98277.13;;;-4.07;100.00
5062;BME280;2351;50.812;12.872;2023-01-27T03:43:44;98282.25;;;-4.06;100.00
5062;BME280;2351;50.812;12.872;2023-01-27T03:46:33;98287.47;;;-4.07;100.00
5062;BME280;2351;50.812;12.872;2023-01-27T03:49:05;98278.84;;;-4.08;100.00
5062;BME280;2351;50.812;12.872;2023-01-27T03:51:36;98281.50;;;-4.11;100.00
5062;BME280;2351;50.812;12.872;2023-01-27T03:54:08;98271.19;;;-4.13;100.00
5062;BME280;2351;50.812;12.872;2023-01-27T03:56:40;98272.06;;;-4.12;100.00
5062;BME280;2351;50.812;12.872;2023-01-27T03:59:13;98271.16;;;-4.11;100.00
5062;BME280;2351;50.812;12.872;2023-01-27T04:01:45;98267.66;;;-4.09;100.00
5062;BME280;2351;50.812;12.872;2023-01-27T04:04:16;98284.09;;;-4.11;100.00
5062;BME280;2351;50.812;12.872;2023-01-27T04:07:06;98273.75;;;-4.11;100.00
5062;BME280;2351;50.812;12.872;2023-01-27T04:09:37;98274.59;;;-4.11;100.00
5062;BME280;2351;50.812;12.872;2023-01-27T04:12:09;98279.81;;;-4.12;100.00
5062;BME280;2351;50.812;12.872;2023-01-27T04:14:41;98278.94;;;-4.13;100.00
5062;BME280;2351;50.812;12.872;2023-01-27T04:17:15;98273.75;;;-4.11;100.00
5062;BME280;2351;50.812;12.872;2023-01-27T04:19:47;98285.81;;;-4.10;100.00
5062;BME280;2351;50.812;12.872;2023-01-27T04:22:18;98275.47;;;-4.10;100.00
5062;BME280;2351;50.812;12.872;2023-01-27T04:24:50;98287.50;;;-4.09;100.00
5062;BME280;2351;50.812;12.872;2023-01-27T04:27:22;98286.63;;;-4.10;100.00
5062;BME280;2351;50.812;12.872;2023-01-27T04:29:55;98290.88;;;-4.07;100.00
5062;BME280;2351;50.812;12.872;2023-01-27T04:32:27;98289.19;;;-4.08;100.00
5062;BME280;2351;50.812;12.872;2023-01-27T04:35:00;98277.13;;;-4.07;100.00
5062;BME280;2351;50.812;12.872;2023-01-27T04:37:31;98296.94;;;-4.08;100.00
5062;BME280;2351;50.812;12.872;2023-01-27T04:40:04;98277.16;;;-4.09;100.00
5062;BME280;2351;50.812;12.872;2023-01-27T04:42:35;98284.91;;;-4.09;100.00
5062;BME280;2351;50.812;12.872;2023-01-27T04:45:09;98279.81;;;-4.14;100.00
5062;BME280;2351;50.812;12.872;2023-01-27T04:47:41;98282.53;;;-4.18;100.00
5062;BME280;2351;50.812;12.872;2023-01-27T04:50:13;98279.88;;;-4.17;100.00
5062;BME280;2351;50.812;12.872;2023-01-27T04:52:44;98280.81;;;-4.19;100.00
5062;BME280;2351;50.812;12.872;2023-01-27T04:55:16;98283.41;;;-4.19;100.00
5062;BME280;2351;50.812;12.872;2023-01-27T04:57:48;98294.50;;;-4.16;100.00
5062;BME280;2351;50.812;12.872;2023-01-27T05:00:21;98293.63;;;-4.15;100.00
5062;BME280;2351;50.812;12.872;2023-01-27T05:02:53;98291.88;;;-4.13;100.00
5062;BME280;2351;50.812;12.872;2023-01-27T05:05:25;98288.38;;;-4.10;100.00
5062;BME280;2351;50.812;12.872;2023-01-27T05:08:01;98296.91;;;-4.06;100.00
5062;BME280;2351;50.812;12.872;2023-01-27T05:10:33;98303.03;;;-4.09;100.00
5062;BME280;2351;50.812;12.872;2023-01-27T05:13:05;98299.50;;;-4.06;100.00
5062;BME280;2351;50.812;12.872;2023-01-27T05:15:38;98303.75;;;-4.04;100.00
5062;BME280;2351;50.812;12.872;2023-01-27T05:18:10;98304.78;;;-4.11;100.00
5062;BME280;2351;50.812;12.872;2023-01-27T05:20:41;98316.78;;;-4.09;100.00
5062;BME280;2351;50.812;12.872;2023-01-27T05:23:13;98310.72;;;-4.07;100.00
5062;BME280;2351;50.812;12.872;2023-01-27T05:26:08;98319.38;;;-4.09;100.00
5062;BME280;2351;50.812;12.872;2023-01-27T05:28:41;98316.84;;;-4.10;100.00
5062;BME280;2351;50.812;12.872;2023-01-27T05:31:16;98322.00;;;-4.10;100.00
5062;BME280;2351;50.812;12.872;2023-01-27T05:33:50;98320.22;;;-4.08;100.00
5062;BME280;2351;50.812;12.872;2023-01-27T05:36:23;98319.31;;;-4.07;100.00
5062;BME280;2351;50.812;12.872;2023-01-27T05:38:56;98316.72;;;-4.05;100.00
5062;BME280;2351;50.812;12.872;2023-01-27T05:41:29;98319.25;;;-4.02;100.00
5062;BME280;2351;50.812;12.872;2023-01-27T05:44:01;98321.91;;;-4.05;100.00
5062;BME280;2351;50.812;12.872;2023-01-27T05:46:37;98319.41;;;-4.10;100.00
5062;BME280;2351;50.812;12.872;2023-01-27T05:49:09;98334.09;;;-4.12;100.00
5062;BME280;2351;50.812;12.872;2023-01-27T05:51:41;98324.53;;;-4.09;100.00
5062;BME280;2351;50.812;12.872;2023-01-27T05:54:13;98328.78;;;-4.06;100.00
5062;BME280;2351;50.812;12.872;2023-01-27T05:56:45;98322.72;;;-4.03;100.00
5062;BME280;2351;50.812;12.872;2023-01-27T05:59:17;98325.25;;;-4.02;100.00
5062;BME280;2351;50.812;12.872;2023-01-27T06:01:50;98323.56;;;-4.03;100.00
5062;BME280;2351;50.812;12.872;2023-01-27T06:04:21;98326.97;;;-4.01;100.00
5062;BME280;2351;50.812;12.872;2023-01-27T06:06:53;98328.66;;;-3.98;100.00
5062;BME280;2351;50.812;12.872;2023-01-27T06:09:25;98332.06;;;-3.98;100.00
5062;BME280;2351;50.812;12.872;2023-01-27T06:11:56;98323.44;;;-3.97;100.00
5062;BME280;2351;50.812;12.872;2023-01-27T06:14:28;98328.56;;;-3.95;100.00
5062;BME280;2351;50.812;12.872;2023-01-27T06:17:01;98331.97;;;-3.93;100.00
5062;BME280;2351;50.812;12.872;2023-01-27T06:19:33;98332.84;;;-3.92;100.00
5062;BME280;2351;50.812;12.872;2023-01-27T06:22:05;98331.06;;;-3.90;100.00
5062;BME280;2351;50.812;12.872;2023-01-27T06:24:36;98323.31;;;-3.90;100.00
5062;BME280;2351;50.812;12.872;2023-01-27T06:27:08;98341.47;;;-3.94;100.00
5062;BME280;2351;50.812;12.872;2023-01-27T06:29:40;98334.59;;;-3.95;100.00
5062;BME280;2351;50.812;12.872;2023-01-27T06:32:13;98341.44;;;-3.92;100.00
5062;BME280;2351;50.812;12.872;2023-01-27T06:34:45;98342.25;;;-3.90;100.00
5062;BME280;2351;50.812;12.872;2023-01-27T06:37:16;98349.19;;;-3.90;100.00
5062;BME280;2351;50.812;12.872;2023-01-27T06:39:48;98351.81;;;-3.94;100.00
5062;BME280;2351;50.812;12.872;2023-01-27T06:42:19;98347.53;;;-3.95;100.00
5062;BME280;2351;50.812;12.872;2023-01-27T06:44:51;98350.94;;;-3.92;100.00
5062;BME280;2351;50.812;12.872;2023-01-27T06:47:25;98356.94;;;-3.90;100.00
5062;BME280;2351;50.812;12.872;2023-01-27T06:49:56;98356.91;;;-3.89;100.00
5062;BME280;2351;50.812;12.872;2023-01-27T06:52:28;98362.00;;;-3.86;100.00
5062;BME280;2351;50.812;12.872;2023-01-27T06:55:00;98369.72;;;-3.84;100.00
5062;BME280;2351;50.812;12.872;2023-01-27T06:57:32;98367.97;;;-3.82;100.00
5062;BME280;2351;50.812;12.872;2023-01-27T07:00:05;98368.88;;;-3.85;100.00
5062;BME280;2351;50.812;12.872;2023-01-27T07:02:38;98372.41;;;-3.89;100.00
5062;BME280;2351;50.812;12.872;2023-01-27T07:05:10;98375.00;;;-3.89;100.00
5062;BME280;2351;50.812;12.872;2023-01-27T07:07:42;98376.69;;;-3.86;100.00
5062;BME280;2351;50.812;12.872;2023-01-27T07:10:14;98369.81;;;-3.87;100.00
5062;BME280;2351;50.812;12.872;2023-01-27T07:12:46;98376.75;;;-3.89;100.00
5062;BME280;2351;50.812;12.872;2023-01-27T07:15:17;98379.34;;;-3.91;100.00
5062;BME280;2351;50.812;12.872;2023-01-27T07:17:51;98375.06;;;-3.92;100.00
5062;BME280;2351;50.812;12.872;2023-01-27T07:20:22;98366.47;;;-3.92;100.00
5062;BME280;2351;50.812;12.872;2023-01-27T07:22:57;98365.66;;;-3.96;100.00
5062;BME280;2351;50.812;12.872;2023-01-27T07:25:30;98369.09;;;-3.96;100.00
5062;BME280;2351;50.812;12.872;2023-01-27T07:28:02;98366.53;;;-3.96;100.00
5062;BME280;2351;50.812;12.872;2023-01-27T07:30:34;98369.94;;;-3.94;100.00
5062;BME280;2351;50.812;12.872;2023-01-27T07:33:11;98370.81;;;-3.95;100.00
5062;BME280;2351;50.812;12.872;2023-01-27T07:35:43;98376.81;;;-3.94;100.00
5062;BME280;2351;50.812;12.872;2023-01-27T07:38:15;98369.06;;;-3.92;100.00
5062;BME280;2351;50.812;12.872;2023-01-27T07:40:47;98379.34;;;-3.89;100.00
5062;BME280;2351;50.812;12.872;2023-01-27T07:43:18;98388.81;;;-3.88;100.00
5062;BME280;2351;50.812;12.872;2023-01-27T07:45:52;98387.00;;;-3.85;100.00
5062;BME280;2351;50.812;12.872;2023-01-27T07:48:25;98393.00;;;-3.84;100.00
5062;BME280;2351;50.812;12.872;2023-01-27T07:50:57;98391.28;;;-3.84;100.00
5062;BME280;2351;50.812;12.872;2023-01-27T07:53:28;98401.56;;;-3.81;100.00
5062;BME280;2351;50.812;12.872;2023-01-27T07:56:00;98405.03;;;-3.82;100.00
5062;BME280;2351;50.812;12.872;2023-01-27T07:58:32;98409.34;;;-3.81;100.00
5062;BME280;2351;50.812;12.872;2023-01-27T08:01:05;98411.94;;;-3.81;100.00
5062;BME280;2351;50.812;12.872;2023-01-27T08:03:38;98408.41;;;-3.76;100.00
5062;BME280;2351;50.812;12.872;2023-01-27T08:06:11;98409.19;;;-3.73;100.00
5062;BME280;2351;50.812;12.872;2023-01-27T08:08:43;98423.78;;;-3.70;100.00
5062;BME280;2351;50.812;12.872;2023-01-27T08:11:15;98424.72;;;-3.74;100.00
5062;BME280;2351;50.812;12.872;2023-01-27T08:13:46;98413.53;;;-3.75;100.00
5062;BME280;2351;50.812;12.872;2023-01-27T08:16:18;98418.59;;;-3.70;100.00
5062;BME280;2351;50.812;12.872;2023-01-27T08:18:52;98418.69;;;-3.75;100.00
5062;BME280;2351;50.812;12.872;2023-01-27T08:21:24;98426.34;;;-3.69;100.00
5062;BME280;2351;50.812;12.872;2023-01-27T08:24:01;98423.78;;;-3.70;100.00
5062;BME280;2351;50.812;12.872;2023-01-27T08:26:33;98434.09;;;-3.69;100.00
5062;BME280;2351;50.812;12.872;2023-01-27T08:29:05;98435.81;;;-3.69;100.00
5062;BME280;2351;50.812;12.872;2023-01-27T08:31:37;98434.06;;;-3.67;100.00
5062;BME280;2351;50.812;12.872;2023-01-27T08:34:12;98436.75;;;-3.72;100.00
5062;BME280;2351;50.812;12.872;2023-01-27T08:36:44;98435.75;;;-3.66;100.00
5062;BME280;2351;50.812;12.872;2023-01-27T08:39:16;98439.19;;;-3.64;100.00
5062;BME280;2351;50.812;12.872;2023-01-27T08:41:47;98436.47;;;-3.59;100.00
5062;BME280;2351;50.812;12.872;2023-01-27T08:44:19;98437.25;;;-3.54;100.00
5062;BME280;2351;50.812;12.872;2023-01-27T08:46:51;98444.91;;;-3.48;100.00
5062;BME280;2351;50.812;12.872;2023-01-27T08:49:24;98446.50;;;-3.42;100.00
5062;BME280;2351;50.812;12.872;2023-01-27T08:51:56;98443.06;;;-3.43;100.00
5062;BME280;2351;50.812;12.872;2023-01-27T08:54:28;98437.03;;;-3.43;100.00
5062;BME280;2351;50.812;12.872;2023-01-27T08:56:59;98444.13;;;-3.53;100.00
5062;BME280;2351;50.812;12.872;2023-01-27T08:59:31;98438.00;;;-3.49;100.00
5062;BME280;2351;50.812;12.872;2023-01-27T09:02:03;98446.53;;;-3.44;100.00
5062;BME280;2351;50.812;12.872;2023-01-27T09:04:36;98441.28;;;-3.41;100.00
5062;BME280;2351;50.812;12.872;2023-01-27T09:07:11;98448.91;;;-3.35;100.00
5062;BME280;2351;50.812;12.872;2023-01-27T09:09:45;98444.59;;;-3.34;100.00
5062;BME280;2351;50.812;12.872;2023-01-27T09:12:16;98445.41;;;-3.32;100.00
5062;BME280;2351;50.812;12.872;2023-01-27T09:14:48;98445.41;;;-3.32;100.00
5062;BME280;2351;50.812;12.872;2023-01-27T09:17:20;98449.91;;;-3.42;100.00
5062;BME280;2351;50.812;12.872;2023-01-27T09:19:53;98454.13;;;-3.36;100.00
5062;BME280;2351;50.812;12.872;2023-01-27T09:22:25;98452.31;;;-3.33;100.00
5062;BME280;2351;50.812;12.872;2023-01-27T09:24:56;98461.72;;;-3.28;100.00
5062;BME280;2351;50.812;12.872;2023-01-27T09:27:28;98452.16;;;-3.25;100.00
5062;BME280;2351;50.812;12.872;2023-01-27T09:30:00;98458.19;;;-3.24;100.00
5062;BME280;2351;50.812;12.872;2023-01-27T09:32:31;98452.16;;;-3.25;100.00
5062;BME280;2351;50.812;12.872;2023-01-27T09:35:05;98458.16;;;-3.23;100.00
5062;BME280;2351;50.812;12.872;2023-01-27T09:37:40;98460.63;;;-3.18;100.00
5062;BME280;2351;50.812;12.872;2023-01-27T09:40:22;98458.78;;;-3.11;100.00
5062;BME280;2351;50.812;12.872;2023-01-27T09:43:15;98468.34;;;-3.15;100.00
5062;BME280;2351;50.812;12.872;2023-01-27T09:46:01;98467.28;;;-3.06;100.00
5062;BME280;2351;50.812;12.872;2023-01-27T09:51:40;98466.16;;;-2.94;100.00
5062;BME280;2351;50.812;12.872;2023-01-27T09:54:42;98469.66;;;-2.97;100.00
5062;BME280;2351;50.812;12.872;2023-01-27T09:57:24;98470.69;;;-3.04;100.00
5062;BME280;2351;50.812;12.872;2023-01-27T10:00:15;98472.22;;;-2.95;100.00
5062;BME280;2351;50.812;12.872;2023-01-27T10:03:19;98469.34;;;-2.83;100.00
5062;BME280;2351;50.812;12.872;2023-01-27T10:06:08;98465.75;;;-2.77;100.00
5062;BME280;2351;50.812;12.872;2023-01-27T10:09:18;98467.50;;;-2.78;100.00
5062;BME280;2351;50.812;12.872;2023-01-27T10:12:05;98467.50;;;-2.78;100.00
5062;BME280;2351;50.812;12.872;2023-01-27T10:14:45;98457.06;;;-2.75;100.00
5062;BME280;2351;50.812;12.872;2023-01-27T10:17:27;98455.34;;;-2.76;100.00
5062;BME280;2351;50.812;12.872;2023-01-27T10:20:10;98457.34;;;-2.87;100.00
5062;BME280;2351;50.812;12.872;2023-01-27T10:22:51;98462.59;;;-2.90;100.00
5062;BME280;2351;50.812;12.872;2023-01-27T10:25:35;98460.75;;;-2.85;100.00
5062;BME280;2351;50.812;12.872;2023-01-27T10:28:13;98460.69;;;-2.82;100.00
5062;BME280;2351;50.812;12.872;2023-01-27T10:30:50;98457.31;;;-2.85;100.00
5062;BME280;2351;50.812;12.872;2023-01-27T10:33:36;98458.16;;;-2.85;100.00
5062;BME280;2351;50.812;12.872;2023-01-27T10:36:16;98461.50;;;-2.80;100.00
5062;BME280;2351;50.812;12.872;2023-01-27T10:39:02;98458.09;;;-2.82;100.00
5062;BME280;2351;50.812;12.872;2023-01-27T10:41:43;98465.13;;;-2.87;100.00
5062;BME280;2351;50.812;12.872;2023-01-27T10:44:32;98464.09;;;-2.80;100.00
5062;BME280;2351;50.812;12.872;2023-01-27T10:47:12;98471.00;;;-2.79;100.00
5062;BME280;2351;50.812;12.872;2023-01-27T10:49:48;98464.25;;;-2.86;100.00
5062;BME280;2351;50.812;12.872;2023-01-27T10:52:26;98471.00;;;-2.79;100.00
5062;BME280;2351;50.812;12.872;2023-01-27T10:55:11;98469.06;;;-2.70;100.00
5062;BME280;2351;50.812;12.872;2023-01-27T10:57:51;98458.59;;;-2.66;100.00
5062;BME280;2351;50.812;12.872;2023-01-27T11:00:29;98457.66;;;-2.63;100.00
5062;BME280;2351;50.812;12.872;2023-01-27T11:03:06;98456.69;;;-2.59;100.00
5062;BME280;2351;50.812;12.872;2023-01-27T11:05:44;98454.94;;;-2.57;100.00
5062;BME280;2351;50.812;12.872;2023-01-27T11:08:21;98460.25;;;-2.63;100.00
5062;BME280;2351;50.812;12.872;2023-01-27T11:10:55;98460.31;;;-2.65;100.00
5062;BME280;2351;50.812;12.872;2023-01-27T11:13:48;98469.72;;;-2.62;100.00
5062;BME280;2351;50.812;12.872;2023-01-27T11:16:22;98463.66;;;-2.61;100.00
5062;BME280;2351;50.812;12.872;2023-01-27T11:18:59;98459.31;;;-2.61;100.00
5062;BME280;2351;50.812;12.872;2023-01-27T11:21:34;98458.53;;;-2.64;100.00
5062;BME280;2351;50.812;12.872;2023-01-27T11:24:15;98462.03;;;-2.65;100.00
5062;BME280;2351;50.812;12.872;2023-01-27T11:26:56;98469.72;;;-2.62;100.00
5062;BME280;2351;50.812;12.872;2023-01-27T11:29:36;98467.16;;;-2.64;100.00
5062;BME280;2351;50.812;12.872;2023-01-27T11:32:29;98468.84;;;-2.61;100.00
5062;BME280;2351;50.812;12.872;2023-01-27T11:35:03;98466.25;;;-2.61;100.00
5062;BME280;2351;50.812;12.872;2023-01-27T11:37:37;98467.28;;;-2.68;100.00
5062;BME280;2351;50.812;12.872;2023-01-27T11:40:15;98467.28;;;-2.68;100.00
5062;BME280;2351;50.812;12.872;2023-01-27T11:42:48;98463.72;;;-2.64;100.00
5062;BME280;2351;50.812;12.872;2023-01-27T11:45:21;98461.06;;;-2.61;100.00
5062;BME280;2351;50.812;12.872;2023-01-27T11:47:55;98460.09;;;-2.57;100.00
5062;BME280;2351;50.812;12.872;2023-01-27T11:50:31;98468.06;;;-2.65;100.00
5062;BME280;2351;50.812;12.872;2023-01-27T11:53:10;98467.06;;;-2.59;100.00
5062;BME280;2351;50.812;12.872;2023-01-27T11:55:46;98470.41;;;-2.54;100.00
5062;BME280;2351;50.812;12.872;2023-01-27T11:58:24;98466.19;;;-2.58;100.00
5062;BME280;2351;50.812;12.872;2023-01-27T12:00:59;98464.47;;;-2.59;100.00
5062;BME280;2351;50.812;12.872;2023-01-27T12:03:45;98459.38;;;-2.64;100.00
5062;BME280;2351;50.812;12.872;2023-01-27T12:06:27;98463.88;;;-2.70;100.00
5062;BME280;2351;50.812;12.872;2023-01-27T12:09:02;98459.56;;;-2.70;100.00
5062;BME280;2351;50.812;12.872;2023-01-27T12:11:33;98455.06;;;-2.63;100.00
5062;BME280;2351;50.812;12.872;2023-01-27T12:14:12;98455.81;;;-2.58;100.00
5062;BME280;2351;50.812;12.872;2023-01-27T12:16:48;98448.81;;;-2.54;100.00
5062;BME280;2351;50.812;12.872;2023-01-27T12:19:25;98446.00;;;-2.47;100.00
5062;BME280;2351;50.812;12.872;2023-01-27T12:22:00;98442.53;;;-2.46;100.00
5062;BME280;2351;50.812;12.872;2023-01-27T12:24:34;98439.81;;;-2.41;100.00
5062;BME280;2351;50.812;12.872;2023-01-27T12:27:18;98434.56;;;-2.38;100.00
5062;BME280;2351;50.812;12.872;2023-01-27T12:29:54;98433.56;;;-2.32;100.00
5062;BME280;2351;50.812;12.872;2023-01-27T12:32:35;98426.69;;;-2.33;100.00
5062;BME280;2351;50.812;12.872;2023-01-27T12:35:18;98432.50;;;-2.25;100.00
5062;BME280;2351;50.812;12.872;2023-01-27T12:37:55;98422.94;;;-2.23;100.00
5062;BME280;2351;50.812;12.872;2023-01-27T12:40:29;98418.69;;;-2.25;100.00
5062;BME280;2351;50.812;12.872;2023-01-27T12:43:08;98419.44;;;-2.22;100.00
5062;BME280;2351;50.812;12.872;2023-01-27T12:45:41;98422.94;;;-2.23;100.00
5062;BME280;2351;50.812;12.872;2023-01-27T12:48:19;98417.91;;;-2.29;100.00
5062;BME280;2351;50.812;12.872;2023-01-27T12:50:56;98415.41;;;-2.32;100.00
5062;BME280;2351;50.812;12.872;2023-01-27T12:53:34;98417.81;;;-2.26;100.00
5062;BME280;2351;50.812;12.872;2023-01-27T12:56:10;98418.63;;;-2.22;100.00
5062;BME280;2351;50.812;12.872;2023-01-27T12:58:44;98416.69;;;-2.16;100.00
5062;BME280;2351;50.812;12.872;2023-01-27T13:01:23;98409.66;;;-2.10;100.00
5062;BME280;2351;50.812;12.872;2023-01-27T13:03:59;98416.50;;;-2.09;100.00
5062;BME280;2351;50.812;12.872;2023-01-27T13:06:36;98418.19;;;-2.07;100.00
5062;BME280;2351;50.812;12.872;2023-01-27T13:09:23;98418.44;;;-2.16;100.00
5062;BME280;2351;50.812;12.872;2023-01-27T13:11:58;98421.88;;;-2.16;100.00
5062;BME280;2351;50.812;12.872;2023-01-27T13:14:37;98427.38;;;-2.27;100.00
5062;BME280;2351;50.812;12.872;2023-01-27T13:17:28;98417.88;;;-2.28;100.00
5062;BME280;2351;50.812;12.872;2023-01-27T13:20:05;98427.44;;;-2.30;100.00
5062;BME280;2351;50.812;12.872;2023-01-27T13:22:41;98424.03;;;-2.32;100.00
5062;BME280;2351;50.812;12.872;2023-01-27T13:25:17;98427.56;;;-2.34;100.00
5062;BME280;2351;50.812;12.872;2023-01-27T13:27:53;98424.16;;;-2.36;100.00
5062;BME280;2351;50.812;12.872;2023-01-27T13:30:29;98418.09;;;-2.35;100.00
5062;BME280;2351;50.812;12.872;2023-01-27T13:33:23;98423.97;;;-2.30;100.00
5062;BME280;2351;50.812;12.872;2023-01-27T13:36:02;98423.91;;;-2.27;100.00
5062;BME280;2351;50.812;12.872;2023-01-27T13:38:41;98419.50;;;-2.23;100.00
5062;BME280;2351;50.812;12.872;2023-01-27T13:41:17;98422.84;;;-2.20;100.00
5062;BME280;2351;50.812;12.872;2023-01-27T13:43:59;98417.59;;;-2.17;100.00
5062;BME280;2351;50.812;12.872;2023-01-27T13:46:35;98422.63;;;-2.10;100.00